createdAt,value
2019-06-20T00:03:18.067Z,24.47
2019-06-20T00:08:17.873Z,24.51
2019-06-20T00:13:17.698Z,24.47
2019-06-20T00:18:17.555Z,24.47
2019-06-20T00:23:17.770Z,24.46
2019-06-20T00:28:17.635Z,24.40
2019-06-20T00:33:17.447Z,24.38
2019-06-20T00:38:17.703Z,24.41
2019-06-20T00:43:18.352Z,24.41
2019-06-20T00:48:17.762Z,24.36
2019-06-20T00:53:17.654Z,24.33
2019-06-20T00:58:17.861Z,24.33
2019-06-20T01:03:17.673Z,24.30
2019-06-20T01:08:17.530Z,24.31
2019-06-20T01:13:32.499Z,24.32
2019-06-20T01:18:17.583Z,24.31
2019-06-20T01:23:17.833Z,24.22
2019-06-20T01:28:17.646Z,24.13
2019-06-20T01:33:17.488Z,24.19
2019-06-20T01:38:17.732Z,24.11
2019-06-20T01:43:17.993Z,24.02
2019-06-20T01:48:17.821Z,24.11
2019-06-20T01:53:17.648Z,24.11
2019-06-20T01:58:17.897Z,24.16
2019-06-20T02:03:17.701Z,24.15
2019-06-20T02:08:17.548Z,24.16
2019-06-20T02:13:17.771Z,24.12
2019-06-20T02:18:18.026Z,24.09
2019-06-20T02:23:17.452Z,24.19
2019-06-20T02:28:17.723Z,24.16
2019-06-20T02:33:17.917Z,24.12
2019-06-20T02:38:17.801Z,23.71
2019-06-20T02:43:17.637Z,23.44
2019-06-20T02:48:17.802Z,23.48
2019-06-20T02:53:17.658Z,23.42
2019-06-20T02:58:17.968Z,23.63
2019-06-20T03:03:17.768Z,23.28
2019-06-20T03:08:18.012Z,23.72
2019-06-20T03:13:17.830Z,23.93
2019-06-20T03:18:17.635Z,23.97
2019-06-20T03:23:17.890Z,23.96
2019-06-20T03:28:17.750Z,23.97
2019-06-20T03:33:17.962Z,24.03
2019-06-20T03:38:17.780Z,24.00
2019-06-20T03:43:17.621Z,23.89
2019-06-20T03:48:17.880Z,23.99
2019-06-20T03:53:17.705Z,24.05
2019-06-20T03:58:17.947Z,23.97
2019-06-20T04:03:17.776Z,24.02
2019-06-20T04:08:18.036Z,24.00
2019-06-20T04:13:17.886Z,24.01
2019-06-20T04:18:17.703Z,24.02
2019-06-20T04:23:17.923Z,24.04
2019-06-20T04:28:17.749Z,24.02
2019-06-20T04:33:17.982Z,23.98
2019-06-20T04:38:17.835Z,23.99
2019-06-20T04:43:17.653Z,24.10
2019-06-20T04:48:17.895Z,24.11
2019-06-20T04:53:17.722Z,24.20
2019-06-20T04:58:17.989Z,24.02
2019-06-20T05:03:17.789Z,23.94
2019-06-20T05:08:18.093Z,23.95
2019-06-20T05:13:17.882Z,24.05
2019-06-20T05:18:17.743Z,24.02
2019-06-20T05:23:17.947Z,23.71
2019-06-20T05:28:17.818Z,23.86
2019-06-20T05:33:18.023Z,23.87
2019-06-20T05:38:17.839Z,23.86
2019-06-20T05:43:17.687Z,23.83
2019-06-20T05:48:17.928Z,23.92
2019-06-20T05:53:17.791Z,23.89
2019-06-20T05:58:18.009Z,24.05
2019-06-20T06:03:17.834Z,24.01
2019-06-20T06:08:18.077Z,24.19
2019-06-20T06:13:17.958Z,23.99
2019-06-20T06:18:17.749Z,24.05
2019-06-20T06:23:17.991Z,24.08
2019-06-20T06:28:17.815Z,24.09
2019-06-20T06:33:18.066Z,24.18
2019-06-20T06:38:21.761Z,24.15
2019-06-20T06:43:17.705Z,24.15
2019-06-20T06:48:17.970Z,24.06
2019-06-20T06:53:17.775Z,24.05
2019-06-20T06:58:18.034Z,24.14
2019-06-20T07:03:17.844Z,24.07
2019-06-20T07:08:18.119Z,24.10
2019-06-20T07:13:17.935Z,24.15
2019-06-20T07:18:17.774Z,24.13
2019-06-20T07:23:18.016Z,24.09
2019-06-20T07:28:18.673Z,24.18
2019-06-20T07:33:18.142Z,24.19
2019-06-20T07:38:17.920Z,24.16
2019-06-20T07:43:17.771Z,23.99
2019-06-20T07:48:17.992Z,24.09
2019-06-20T07:53:17.854Z,24.12
2019-06-20T07:58:18.077Z,24.18
2019-06-20T08:03:17.890Z,24.20
2019-06-20T08:08:18.171Z,24.64
2019-06-20T08:13:18.385Z,24.74
2019-06-20T08:18:17.790Z,24.62
2019-06-20T08:23:18.064Z,24.77
2019-06-20T08:28:17.890Z,24.53
2019-06-20T08:33:18.126Z,24.54
2019-06-20T08:38:17.988Z,24.29
2019-06-20T08:43:17.803Z,24.36
2019-06-20T08:48:18.048Z,24.34
2019-06-20T08:53:17.869Z,24.41
2019-06-20T08:58:18.111Z,24.63
2019-06-20T09:03:17.926Z,24.59
2019-06-20T09:08:18.218Z,24.77
2019-06-20T09:13:18.027Z,24.63
2019-06-20T09:18:17.861Z,24.62
2019-06-20T09:23:18.136Z,24.52
2019-06-20T09:28:17.897Z,24.53
2019-06-20T09:33:18.198Z,24.43
2019-06-20T09:38:18.006Z,24.42
2019-06-20T09:43:27.235Z,24.53
2019-06-20T09:48:18.087Z,24.54
2019-06-20T09:53:17.937Z,24.48
2019-06-20T09:58:18.191Z,24.54
2019-06-20T10:03:17.953Z,24.58
2019-06-20T10:08:18.243Z,24.64
2019-06-20T10:13:18.126Z,24.64
2019-06-20T10:18:17.907Z,24.75
2019-06-20T10:23:18.192Z,24.80
2019-06-20T10:28:17.961Z,24.73
2019-06-20T10:33:18.236Z,24.58
2019-06-20T10:38:18.126Z,24.58
2019-06-20T10:43:17.873Z,24.62
2019-06-20T10:48:18.333Z,24.66
2019-06-20T10:53:17.985Z,24.65
2019-06-20T10:58:18.209Z,24.58
2019-06-20T11:03:18.027Z,24.54
2019-06-20T11:08:18.265Z,24.62
2019-06-20T11:13:18.112Z,24.69
2019-06-20T11:18:17.958Z,24.76
2019-06-20T11:23:18.207Z,24.71
2019-06-20T11:28:18.029Z,24.70
2019-06-20T11:33:18.241Z,24.71
2019-06-20T11:38:18.116Z,24.80
2019-06-20T11:43:17.914Z,24.82
2019-06-20T11:48:18.176Z,24.78
2019-06-20T11:53:18.020Z,24.78
2019-06-20T11:58:18.233Z,24.70
2019-06-20T12:03:18.056Z,24.59
2019-06-20T12:08:18.321Z,24.58
2019-06-20T12:13:18.166Z,24.65
2019-06-20T12:18:17.966Z,24.79
2019-06-20T12:23:18.633Z,24.68
2019-06-20T12:28:18.034Z,24.77
2019-06-20T12:33:18.406Z,24.77
2019-06-20T12:38:18.110Z,24.82
2019-06-20T12:43:18.053Z,24.70
2019-06-20T12:48:18.196Z,24.71
2019-06-20T12:53:18.027Z,24.67
2019-06-20T12:58:18.261Z,24.74
2019-06-20T13:03:18.137Z,24.74
2019-06-20T13:08:18.399Z,24.78
2019-06-20T13:13:18.209Z,24.72
2019-06-20T13:18:18.021Z,24.67
2019-06-20T13:23:18.279Z,24.76
2019-06-20T13:28:18.063Z,24.82
2019-06-20T13:33:18.329Z,24.76
2019-06-20T13:38:18.149Z,24.72
2019-06-20T13:43:17.993Z,24.69
2019-06-20T13:48:18.211Z,24.64
2019-06-20T13:53:18.049Z,24.64
2019-06-20T13:58:18.280Z,24.62
2019-06-20T14:03:18.098Z,24.61
2019-06-20T14:08:18.443Z,24.65
2019-06-20T14:13:19.315Z,24.65
2019-06-20T14:18:18.445Z,24.71
2019-06-20T14:23:18.288Z,24.59
2019-06-20T14:28:18.102Z,24.52
2019-06-20T14:33:18.328Z,24.59
2019-06-20T14:38:18.172Z,24.70
2019-06-20T14:43:18.039Z,24.75
2019-06-20T14:48:18.249Z,24.63
2019-06-20T14:53:18.069Z,24.68
2019-06-20T14:58:18.314Z,24.62
2019-06-20T15:03:18.376Z,24.65
2019-06-20T15:08:18.513Z,24.66
2019-06-20T15:13:18.805Z,24.59
2019-06-20T15:18:18.540Z,24.54
2019-06-20T15:23:18.399Z,24.60
2019-06-20T15:28:18.154Z,24.56
2019-06-20T15:33:18.391Z,24.49
2019-06-20T15:38:18.190Z,24.59
2019-06-20T15:43:18.066Z,24.47
2019-06-20T15:48:18.301Z,24.33
2019-06-20T15:53:18.595Z,24.49
2019-06-20T15:58:18.401Z,24.44
2019-06-20T16:03:18.371Z,24.48
2019-06-20T16:08:18.735Z,24.52
2019-06-20T16:13:18.325Z,24.52
2019-06-20T16:18:18.637Z,24.46
2019-06-20T16:23:18.414Z,24.47
2019-06-20T16:28:18.602Z,24.45
2019-06-20T16:33:25.051Z,24.48
2019-06-20T16:38:18.307Z,24.49
2019-06-20T16:43:18.101Z,24.45
2019-06-20T16:48:18.347Z,24.41
2019-06-20T16:53:18.181Z,24.45
2019-06-20T16:58:18.391Z,24.46
2019-06-20T17:03:18.293Z,24.47
2019-06-20T17:08:18.565Z,24.44
2019-06-20T17:13:18.329Z,24.48
2019-06-20T17:18:18.173Z,24.47
2019-06-20T17:23:18.455Z,24.52
2019-06-20T17:28:18.241Z,24.50
2019-06-20T17:33:18.465Z,24.60
2019-06-20T17:38:18.495Z,24.52
2019-06-20T17:43:18.128Z,24.37
2019-06-20T17:48:18.363Z,24.33
2019-06-20T17:53:18.256Z,24.28
2019-06-20T17:58:18.532Z,24.02
2019-06-20T18:03:18.268Z,23.96
2019-06-20T18:08:18.516Z,23.94
2019-06-20T18:13:18.512Z,23.69
2019-06-20T18:18:18.599Z,23.94
2019-06-20T18:23:18.584Z,23.91
2019-06-20T18:28:18.278Z,23.96
2019-06-20T18:33:18.600Z,23.79
2019-06-20T18:38:18.347Z,22.25
2019-06-20T18:43:18.607Z,22.23
2019-06-20T18:48:18.458Z,21.96
2019-06-20T18:53:18.640Z,21.84
2019-06-20T18:58:18.511Z,21.89
2019-06-20T19:03:21.250Z,21.65
2019-06-20T19:08:18.556Z,21.66
2019-06-20T19:13:18.925Z,21.36
2019-06-20T19:18:18.291Z,21.15
2019-06-20T19:23:18.445Z,21.98
2019-06-20T19:28:18.371Z,21.47
2019-06-20T19:33:18.536Z,21.41
2019-06-20T19:38:18.363Z,21.07
2019-06-20T19:43:18.634Z,21.22
2019-06-20T19:48:18.478Z,21.05
2019-06-20T19:53:18.254Z,21.09
2019-06-20T19:58:18.503Z,20.69
2019-06-20T20:03:18.345Z,20.74
2019-06-20T20:08:18.554Z,20.62
2019-06-20T20:13:18.429Z,20.55
2019-06-20T20:18:18.240Z,21.08
2019-06-20T20:23:18.689Z,21.25
2019-06-20T20:28:18.331Z,20.96
2019-06-20T20:33:18.546Z,20.12
2019-06-20T20:38:18.406Z,20.83
2019-06-20T20:43:18.790Z,19.99
2019-06-20T20:48:18.473Z,20.05
2019-06-20T20:53:18.296Z,19.96
2019-06-20T20:58:18.547Z,19.31
2019-06-20T21:03:18.511Z,19.51
2019-06-20T21:08:18.631Z,20.26
2019-06-20T21:13:18.501Z,20.83
2019-06-20T21:18:18.242Z,21.06
2019-06-20T21:23:18.517Z,20.97
2019-06-20T21:28:18.371Z,20.94
2019-06-20T21:33:18.589Z,19.81
2019-06-20T21:38:18.451Z,19.61
2019-06-20T21:43:18.717Z,19.29
2019-06-20T21:48:18.483Z,19.45
2019-06-20T21:53:18.551Z,20.43
2019-06-20T21:58:18.564Z,19.71
2019-06-20T22:03:18.392Z,21.04
2019-06-20T22:08:18.695Z,21.50
2019-06-20T22:13:18.473Z,21.65
2019-06-20T22:18:18.288Z,21.70
2019-06-20T22:23:18.561Z,21.74
2019-06-20T22:28:18.419Z,21.83
2019-06-20T22:33:18.623Z,21.95
2019-06-20T22:38:18.449Z,22.05
2019-06-20T22:43:18.736Z,21.91
2019-06-20T22:48:18.507Z,21.89
2019-06-20T22:53:18.420Z,21.96
2019-06-20T22:58:18.620Z,22.06
2019-06-20T23:03:18.447Z,22.03
2019-06-20T23:13:18.496Z,22.16
2019-06-20T23:18:18.780Z,22.27
2019-06-20T23:23:18.548Z,22.16
2019-06-20T23:28:18.417Z,22.15
2019-06-20T23:33:18.655Z,22.10
2019-06-20T23:38:18.460Z,22.17
2019-06-20T23:43:18.743Z,22.31
2019-06-20T23:48:18.574Z,22.16
2019-06-20T23:53:18.816Z,22.28
2019-06-20T23:58:18.629Z,22.36
